createdAt,value
2023-02-23T00:01:30.486Z,33.65
2023-02-23T00:04:03.881Z,32.00
2023-02-23T00:06:36.890Z,40.95
2023-02-23T00:09:22.895Z,35.80
2023-02-23T00:11:56.440Z,31.52
2023-02-23T00:14:31.402Z,28.85
2023-02-23T00:17:03.981Z,35.42
2023-02-23T00:19:38.248Z,29.50
2023-02-23T00:22:11.078Z,42.10
2023-02-23T00:24:48.719Z,42.15
2023-02-23T00:27:21.673Z,34.45
2023-02-23T00:29:55.348Z,29.33
2023-02-23T00:32:28.112Z,35.45
2023-02-23T00:35:01.175Z,37.05
2023-02-23T00:37:33.715Z,31.75
2023-02-23T00:40:14.978Z,38.13
2023-02-23T00:42:48.166Z,31.00
2023-02-23T00:45:21.377Z,45.65
2023-02-23T00:47:54.178Z,27.98
2023-02-23T00:50:27.074Z,34.75
2023-02-23T00:53:00.593Z,40.35
2023-02-23T00:55:33.628Z,31.20
2023-02-23T00:58:06.931Z,33.72
2023-02-23T01:00:42.584Z,32.70
2023-02-23T01:03:15.139Z,33.90
2023-02-23T01:05:50.501Z,31.17
2023-02-23T01:08:23.061Z,41.03
2023-02-23T01:10:55.936Z,40.85
2023-02-23T01:13:28.497Z,46.30
2023-02-23T01:16:02.297Z,38.42
2023-02-23T01:18:35.323Z,35.97
2023-02-23T01:21:14.876Z,36.00
2023-02-23T01:23:47.571Z,25.95
2023-02-23T01:26:31.592Z,28.60
2023-02-23T01:29:05.487Z,31.70
2023-02-23T01:31:41.741Z,41.88
2023-02-23T01:34:15.058Z,34.80
2023-02-23T01:36:48.168Z,38.67
2023-02-23T01:39:21.106Z,34.85
2023-02-23T01:41:54.822Z,28.45
2023-02-23T01:44:32.685Z,31.40
2023-02-23T01:47:05.798Z,37.03
2023-02-23T01:49:38.731Z,34.38
2023-02-23T01:52:13.706Z,31.67
2023-02-23T01:54:50.749Z,32.75
2023-02-23T01:57:27.319Z,38.83
2023-02-23T02:00:00.402Z,48.20
2023-02-23T02:02:34.102Z,36.22
2023-02-23T02:05:13.656Z,24.92
2023-02-23T02:07:47.948Z,44.40
2023-02-23T02:10:40.159Z,38.15
2023-02-23T02:13:15.757Z,40.90
2023-02-23T02:15:59.278Z,41.28
2023-02-23T02:18:42.111Z,39.97
2023-02-23T02:23:59.378Z,43.47
2023-02-23T02:26:38.017Z,47.70
2023-02-23T02:29:23.356Z,54.63
2023-02-23T02:32:06.186Z,51.30
2023-02-23T02:34:42.936Z,50.65
2023-02-23T02:37:18.568Z,49.03
2023-02-23T02:40:14.841Z,49.33
2023-02-23T02:43:11.809Z,38.50
2023-02-23T02:45:49.985Z,45.30
2023-02-23T02:48:42.583Z,39.15
2023-02-23T02:51:18.691Z,51.83
2023-02-23T02:53:57.583Z,40.22
2023-02-23T02:56:31.286Z,42.53
2023-02-23T02:59:03.914Z,34.55
2023-02-23T03:01:56.016Z,44.50
2023-02-23T03:04:47.801Z,47.53
2023-02-23T03:07:41.057Z,55.40
2023-02-23T03:10:35.383Z,42.42
2023-02-23T03:13:34.422Z,37.55
2023-02-23T03:16:28.599Z,43.85
2023-02-23T03:19:19.847Z,40.08
2023-02-23T03:22:18.360Z,38.58
2023-02-23T03:25:16.136Z,39.35
2023-02-23T03:28:37.535Z,51.55
2023-02-23T03:32:01.523Z,43.08
2023-02-23T03:34:59.305Z,36.03
2023-02-23T03:38:12.363Z,52.15
2023-02-23T03:41:05.439Z,44.53
2023-02-23T03:44:05.812Z,38.33
2023-02-23T03:46:58.093Z,45.78
2023-02-23T03:49:52.038Z,44.50
2023-02-23T03:52:57.950Z,41.35
2023-02-23T03:55:52.818Z,44.10
2023-02-23T03:58:49.550Z,29.90
2023-02-23T04:01:42.311Z,34.97
2023-02-23T04:04:33.280Z,34.22
2023-02-23T04:07:26.000Z,33.92
2023-02-23T04:10:18.013Z,41.58
2023-02-23T04:13:13.723Z,41.22
2023-02-23T04:16:06.404Z,37.80
2023-02-23T04:18:40.008Z,37.58
2023-02-23T04:21:12.621Z,36.08
2023-02-23T04:23:45.667Z,37.60
2023-02-23T04:26:18.174Z,39.42
2023-02-23T04:28:51.008Z,39.35
2023-02-23T04:31:25.305Z,36.33
2023-02-23T04:33:58.555Z,38.70
2023-02-23T04:36:31.204Z,33.95
2023-02-23T04:39:04.304Z,40.97
2023-02-23T04:41:37.138Z,38.58
2023-02-23T04:44:10.127Z,39.05
2023-02-23T04:46:42.941Z,28.73
2023-02-23T04:49:15.881Z,27.25
2023-02-23T04:51:48.447Z,44.92
2023-02-23T04:54:21.747Z,39.88
2023-02-23T04:56:54.397Z,43.78
2023-02-23T04:59:27.435Z,28.13
2023-02-23T05:02:00.150Z,36.25
2023-02-23T05:04:35.740Z,40.17
2023-02-23T05:07:08.287Z,40.35
2023-02-23T05:09:41.417Z,39.38
2023-02-23T05:12:15.147Z,39.47
2023-02-23T05:14:48.118Z,39.67
2023-02-23T05:17:20.731Z,30.40
2023-02-23T05:19:53.956Z,35.05
2023-02-23T05:22:26.459Z,40.50
2023-02-23T05:24:59.435Z,35.22
2023-02-23T05:27:33.037Z,33.50
2023-02-23T05:30:08.149Z,29.73
2023-02-23T05:32:40.888Z,33.70
2023-02-23T05:35:13.927Z,35.38
2023-02-23T05:37:46.480Z,33.47
2023-02-23T05:40:19.343Z,24.08
2023-02-23T05:42:51.991Z,20.92
2023-02-23T05:45:24.956Z,31.60
2023-02-23T05:47:58.159Z,30.67
2023-02-23T05:50:31.103Z,30.90
2023-02-23T05:53:03.665Z,26.92
2023-02-23T05:55:36.641Z,30.65
2023-02-23T05:58:09.102Z,23.83
2023-02-23T06:00:42.055Z,25.50
2023-02-23T06:03:15.738Z,22.70
2023-02-23T06:05:55.638Z,30.35
2023-02-23T06:08:28.526Z,23.67
2023-02-23T06:11:01.661Z,34.38
2023-02-23T06:13:34.541Z,34.90
2023-02-23T06:16:08.773Z,25.60
2023-02-23T06:18:41.427Z,24.15
2023-02-23T06:21:15.039Z,29.25
2023-02-23T06:23:47.736Z,24.65
2023-02-23T06:26:20.982Z,20.45
2023-02-23T06:28:53.519Z,23.55
2023-02-23T06:31:26.480Z,39.42
2023-02-23T06:33:59.095Z,40.60
2023-02-23T06:36:32.061Z,34.10
2023-02-23T06:39:04.612Z,27.30
2023-02-23T06:41:37.623Z,25.60
2023-02-23T06:44:10.133Z,23.10
2023-02-23T06:46:43.133Z,36.40
2023-02-23T06:49:16.725Z,36.42
2023-02-23T06:51:49.665Z,21.77
2023-02-23T06:54:22.228Z,30.77
2023-02-23T06:56:57.010Z,22.65
2023-02-23T06:59:30.808Z,22.83
2023-02-23T07:02:06.073Z,28.23
2023-02-23T07:04:38.799Z,24.10
2023-02-23T07:07:12.954Z,26.15
2023-02-23T07:09:45.558Z,22.00
2023-02-23T07:12:18.435Z,26.90
2023-02-23T07:14:50.996Z,28.83
2023-02-23T07:17:24.012Z,21.95
2023-02-23T07:19:56.782Z,27.48
2023-02-23T07:22:30.737Z,19.65
2023-02-23T07:25:04.866Z,29.85
2023-02-23T07:27:37.950Z,25.75
2023-02-23T07:30:10.946Z,37.15
2023-02-23T07:32:43.943Z,25.60
2023-02-23T07:35:16.581Z,33.05
2023-02-23T07:37:50.133Z,26.85
2023-02-23T07:40:22.622Z,22.05
2023-02-23T07:42:55.894Z,28.50
2023-02-23T07:45:28.728Z,19.67
2023-02-23T07:48:01.974Z,28.75
2023-02-23T07:50:34.520Z,30.70
2023-02-23T07:53:07.402Z,26.38
2023-02-23T07:55:40.550Z,25.10
2023-02-23T07:58:13.711Z,32.22
2023-02-23T08:00:46.474Z,24.95
2023-02-23T08:03:19.456Z,21.25
2023-02-23T08:05:51.956Z,23.08
2023-02-23T08:08:25.080Z,23.88
2023-02-23T08:11:01.472Z,24.63
2023-02-23T08:13:34.503Z,21.73
2023-02-23T08:16:07.721Z,23.92
2023-02-23T08:18:41.264Z,24.73
2023-02-23T08:21:13.898Z,23.38
2023-02-23T08:23:46.915Z,26.05
2023-02-23T08:26:19.399Z,35.30
2023-02-23T08:28:52.952Z,23.77
2023-02-23T08:31:27.887Z,36.70
2023-02-23T08:34:01.034Z,44.45
2023-02-23T08:36:33.778Z,33.28
2023-02-23T08:39:07.823Z,35.97
2023-02-23T08:41:40.682Z,34.10
2023-02-23T08:44:13.603Z,34.78
2023-02-23T08:46:46.274Z,25.05
2023-02-23T08:49:19.282Z,25.58
2023-02-23T08:51:51.997Z,32.80
2023-02-23T08:54:24.973Z,26.45
2023-02-23T08:56:58.547Z,33.33
2023-02-23T08:59:31.568Z,34.15
2023-02-23T09:02:04.117Z,36.38
2023-02-23T09:04:37.778Z,34.13
2023-02-23T09:07:13.963Z,29.88
2023-02-23T09:09:46.863Z,30.08
2023-02-23T09:12:19.434Z,26.83
2023-02-23T09:14:54.203Z,36.90
2023-02-23T09:17:28.152Z,44.72
2023-02-23T09:20:02.907Z,34.85
2023-02-23T09:22:36.855Z,42.25
2023-02-23T09:25:11.873Z,39.75
2023-02-23T09:27:45.010Z,28.88
2023-02-23T09:30:20.744Z,45.30
2023-02-23T09:32:54.400Z,44.95
2023-02-23T09:35:27.392Z,33.38
2023-02-23T09:38:00.152Z,41.33
2023-02-23T09:40:43.564Z,42.03
2023-02-23T09:43:21.313Z,44.42
2023-02-23T09:46:14.815Z,53.92
2023-02-23T09:48:47.326Z,42.25
2023-02-23T09:51:22.110Z,35.85
2023-02-23T09:53:55.911Z,39.60
2023-02-23T09:56:37.006Z,43.88
2023-02-23T09:59:16.576Z,35.25
2023-02-23T10:01:49.658Z,35.58
2023-02-23T10:04:22.360Z,40.22
2023-02-23T10:07:00.536Z,39.28
2023-02-23T10:09:58.379Z,32.78
2023-02-23T10:12:39.947Z,37.42
2023-02-23T10:15:24.856Z,31.95
2023-02-23T10:18:08.009Z,45.92
2023-02-23T10:20:45.538Z,36.70
2023-02-23T10:23:31.366Z,36.10
2023-02-23T10:26:04.538Z,43.63
2023-02-23T10:28:37.787Z,37.40
2023-02-23T10:31:28.925Z,40.28
2023-02-23T10:34:05.086Z,28.83
2023-02-23T10:36:38.666Z,28.40
2023-02-23T10:39:12.416Z,28.33
2023-02-23T10:41:44.989Z,36.83
2023-02-23T10:44:20.042Z,27.75
2023-02-23T10:46:58.153Z,32.03
2023-02-23T10:49:43.401Z,27.30
2023-02-23T10:52:22.048Z,27.55
2023-02-23T10:54:55.913Z,38.83
2023-02-23T10:57:30.847Z,28.00
2023-02-23T11:00:37.341Z,31.65
2023-02-23T11:03:19.249Z,35.45
2023-02-23T11:05:53.980Z,35.17
2023-02-23T11:08:32.057Z,34.08
2023-02-23T11:11:04.960Z,36.63
2023-02-23T11:13:48.143Z,43.85
2023-02-23T11:16:25.870Z,44.08
2023-02-23T11:19:03.021Z,34.53
2023-02-23T11:21:40.279Z,35.33
2023-02-23T11:24:16.117Z,43.83
2023-02-23T11:26:50.604Z,29.77
2023-02-23T11:29:26.253Z,30.20
2023-02-23T11:32:00.107Z,31.77
2023-02-23T11:34:33.805Z,40.03
2023-02-23T11:37:06.667Z,37.38
2023-02-23T11:39:50.602Z,42.45
2023-02-23T11:42:27.631Z,45.05
2023-02-23T11:45:14.952Z,39.55
2023-02-23T11:47:59.727Z,40.42
2023-02-23T11:50:34.454Z,41.72
2023-02-23T11:53:14.913Z,24.75
2023-02-23T11:55:52.049Z,35.75
2023-02-23T11:58:28.117Z,44.17
2023-02-23T12:01:11.466Z,40.80
2023-02-23T12:03:53.410Z,40.67
2023-02-23T12:06:30.839Z,22.50
2023-02-23T12:09:18.764Z,29.33
2023-02-23T12:12:02.794Z,40.42
2023-02-23T12:14:41.537Z,30.77
2023-02-23T12:17:20.273Z,24.52
2023-02-23T12:19:58.824Z,30.85
2023-02-23T12:22:37.693Z,27.05
2023-02-23T12:25:21.161Z,27.52
2023-02-23T12:28:01.422Z,33.45
2023-02-23T12:31:07.168Z,24.85
2023-02-23T12:33:44.528Z,29.40
2023-02-23T12:36:39.209Z,27.48
2023-02-23T12:39:31.154Z,24.73
2023-02-23T12:42:16.253Z,26.77
2023-02-23T12:44:57.573Z,32.00
2023-02-23T12:47:36.312Z,28.48
2023-02-23T12:50:14.355Z,33.55
2023-02-23T12:52:49.881Z,35.25
2023-02-23T12:55:27.914Z,30.40
2023-02-23T12:58:23.818Z,34.85
2023-02-23T13:00:59.676Z,34.42
2023-02-23T13:03:38.577Z,31.73
2023-02-23T13:06:31.394Z,29.73
2023-02-23T13:09:10.211Z,48.05
2023-02-23T13:11:45.870Z,34.40
2023-02-23T13:14:40.125Z,31.42
2023-02-23T13:17:33.337Z,22.33
2023-02-23T13:20:18.260Z,32.15
2023-02-23T13:22:55.572Z,37.58
2023-02-23T13:25:40.397Z,31.23
2023-02-23T13:28:18.180Z,54.97
2023-02-23T13:30:51.043Z,22.48
2023-02-23T13:33:41.985Z,47.90
2023-02-23T13:36:16.913Z,34.35
2023-02-23T13:39:18.695Z,36.45
2023-02-23T13:42:05.691Z,32.42
2023-02-23T13:44:42.211Z,38.60
2023-02-23T13:47:18.193Z,31.70
2023-02-23T13:50:05.936Z,27.17
2023-02-23T13:52:40.535Z,45.88
2023-02-23T13:55:40.024Z,29.38
2023-02-23T13:58:16.710Z,49.13
2023-02-23T14:01:15.428Z,39.65
2023-02-23T14:03:53.798Z,30.55
2023-02-23T14:06:28.045Z,47.20
2023-02-23T14:09:07.519Z,36.30
2023-02-23T14:11:51.961Z,38.63
2023-02-23T14:14:31.147Z,33.47
2023-02-23T14:17:32.559Z,30.95
2023-02-23T14:20:13.393Z,32.47
2023-02-23T14:23:26.592Z,32.33
2023-02-23T14:26:11.992Z,33.90
2023-02-23T14:28:50.641Z,33.95
2023-02-23T14:31:26.124Z,30.88
2023-02-23T14:34:00.249Z,38.45
2023-02-23T14:36:38.381Z,44.55
2023-02-23T14:39:17.499Z,40.50
2023-02-23T14:41:53.013Z,33.25
2023-02-23T14:44:32.698Z,35.85
2023-02-23T14:47:16.060Z,46.05
2023-02-23T14:49:51.068Z,40.33
2023-02-23T14:52:32.813Z,41.95
2023-02-23T14:55:17.366Z,48.08
2023-02-23T14:57:50.730Z,32.80
2023-02-23T15:00:24.967Z,25.65
2023-02-23T15:02:57.933Z,30.10
2023-02-23T15:05:36.060Z,30.67
2023-02-23T15:08:12.712Z,28.48
2023-02-23T15:10:46.757Z,32.85
2023-02-23T15:13:30.077Z,36.38
2023-02-23T15:16:05.891Z,33.75
2023-02-23T15:18:40.792Z,66.43
2023-02-23T15:21:16.746Z,30.98
2023-02-23T15:23:51.589Z,31.77
2023-02-23T15:26:33.224Z,33.88
2023-02-23T15:29:14.938Z,31.13
2023-02-23T15:31:52.862Z,34.47
2023-02-23T15:34:27.110Z,36.28
2023-02-23T15:36:59.768Z,24.95
2023-02-23T15:39:40.364Z,23.73
2023-02-23T15:42:14.934Z,27.70
2023-02-23T15:44:55.811Z,27.27
2023-02-23T15:47:32.168Z,45.80
2023-02-23T15:50:08.523Z,38.35
2023-02-23T15:52:46.713Z,31.52
2023-02-23T15:55:31.956Z,22.25
2023-02-23T15:58:18.967Z,27.75
2023-02-23T16:00:56.348Z,20.52
2023-02-23T16:03:37.465Z,32.20
2023-02-23T16:06:36.851Z,38.83
2023-02-23T16:09:21.235Z,34.63
2023-02-23T16:11:55.689Z,27.88
2023-02-23T16:14:31.838Z,43.05
2023-02-23T16:17:11.786Z,57.38
2023-02-23T16:19:45.604Z,43.35
2023-02-23T16:22:26.565Z,41.50
2023-02-23T16:25:01.308Z,31.83
2023-02-23T16:27:34.338Z,39.60
2023-02-23T16:30:24.488Z,37.25
2023-02-23T16:33:06.526Z,31.23
2023-02-23T16:35:42.188Z,41.70
2023-02-23T16:38:21.289Z,28.63
2023-02-23T16:40:54.047Z,36.28
2023-02-23T16:43:27.426Z,32.28
2023-02-23T16:46:00.134Z,34.00
2023-02-23T16:48:33.096Z,24.80
2023-02-23T16:51:09.047Z,35.00
2023-02-23T16:53:42.610Z,37.03
2023-02-23T16:56:18.392Z,36.08
2023-02-23T16:58:54.458Z,34.50
2023-02-23T17:01:27.042Z,41.80
2023-02-23T17:04:00.014Z,39.85
2023-02-23T17:06:32.525Z,53.08
2023-02-23T17:09:05.438Z,48.63
2023-02-23T17:11:38.011Z,50.90
2023-02-23T17:14:19.644Z,38.28
2023-02-23T17:16:52.296Z,31.67
2023-02-23T17:19:26.081Z,32.75
2023-02-23T17:21:58.854Z,44.42
2023-02-23T17:24:31.818Z,42.28
2023-02-23T17:27:04.943Z,41.30
2023-02-23T17:29:37.841Z,56.45
2023-02-23T17:32:10.545Z,44.78
2023-02-23T17:34:43.594Z,55.63
2023-02-23T17:37:16.107Z,40.05
2023-02-23T17:39:51.373Z,49.95
2023-02-23T17:42:35.186Z,58.30
2023-02-23T17:45:08.563Z,49.45
2023-02-23T17:47:41.255Z,48.53
2023-02-23T17:50:14.242Z,42.17
2023-02-23T17:52:47.302Z,37.05
2023-02-23T17:55:20.822Z,30.75
2023-02-23T17:57:53.317Z,29.10
2023-02-23T18:00:26.475Z,30.58
2023-02-23T18:02:59.014Z,34.67
2023-02-23T18:05:32.795Z,31.17
2023-02-23T18:08:05.583Z,31.38
2023-02-23T18:10:38.401Z,25.50
2023-02-23T18:13:10.918Z,33.30
2023-02-23T18:15:47.964Z,35.95
2023-02-23T18:18:21.127Z,30.08
2023-02-23T18:20:57.429Z,29.33
2023-02-23T18:23:32.907Z,30.75
2023-02-23T18:26:09.709Z,45.33
2023-02-23T18:28:44.754Z,30.40
2023-02-23T18:31:20.228Z,30.65
2023-02-23T18:33:53.259Z,24.13
2023-02-23T18:36:28.259Z,34.63
2023-02-23T18:39:01.539Z,35.45
2023-02-23T18:41:34.493Z,31.77
2023-02-23T18:44:08.695Z,42.58
2023-02-23T18:46:42.385Z,36.90
2023-02-23T18:49:19.525Z,45.55
2023-02-23T18:51:52.430Z,33.33
2023-02-23T18:54:26.289Z,37.97
2023-02-23T18:56:59.251Z,46.30
2023-02-23T18:59:32.318Z,38.83
2023-02-23T19:02:05.525Z,38.22
2023-02-23T19:04:39.858Z,26.60
2023-02-23T19:07:12.912Z,31.27
2023-02-23T19:09:47.522Z,28.52
2023-02-23T19:12:20.366Z,32.50
2023-02-23T19:14:53.066Z,39.20
2023-02-23T19:17:26.750Z,53.50
2023-02-23T19:20:00.916Z,51.55
2023-02-23T19:22:33.784Z,59.25
2023-02-23T19:25:06.858Z,58.00
2023-02-23T19:27:40.131Z,67.32
2023-02-23T19:30:13.909Z,66.53
2023-02-23T19:32:46.956Z,71.43
2023-02-23T19:35:19.724Z,54.63
2023-02-23T19:37:53.226Z,49.25
2023-02-23T19:40:28.833Z,46.10
2023-02-23T19:43:01.957Z,48.08
2023-02-23T19:45:34.606Z,42.60
2023-02-23T19:48:08.288Z,45.03
2023-02-23T19:50:40.835Z,38.65
2023-02-23T19:53:14.570Z,41.15
2023-02-23T19:55:49.034Z,39.88
2023-02-23T19:58:27.399Z,40.60
2023-02-23T20:01:10.986Z,40.17
2023-02-23T20:03:45.219Z,35.63
2023-02-23T20:06:18.130Z,38.60
2023-02-23T20:08:52.742Z,30.15
2023-02-23T20:11:25.276Z,30.88
2023-02-23T20:13:58.983Z,35.78
2023-02-23T20:16:31.696Z,30.55
2023-02-23T20:19:06.872Z,42.85
2023-02-23T20:21:39.986Z,40.35
2023-02-23T20:24:13.323Z,48.78
2023-02-23T20:26:46.404Z,43.28
2023-02-23T20:29:19.488Z,47.17
2023-02-23T20:31:52.277Z,37.92
2023-02-23T20:34:25.301Z,30.23
2023-02-23T20:37:00.583Z,39.30
2023-02-23T20:39:33.651Z,34.35
2023-02-23T20:42:06.220Z,37.75
2023-02-23T20:44:39.222Z,38.33
2023-02-23T20:47:11.827Z,29.77
2023-02-23T20:49:44.636Z,30.95
2023-02-23T20:52:17.338Z,28.08
2023-02-23T20:54:50.364Z,27.20
2023-02-23T20:57:23.051Z,28.13
2023-02-23T20:59:56.020Z,35.47
2023-02-23T21:02:28.956Z,24.80
2023-02-23T21:05:02.086Z,30.67
2023-02-23T21:07:34.634Z,36.30
2023-02-23T21:10:08.888Z,46.45
2023-02-23T21:12:41.420Z,53.95
2023-02-23T21:15:15.180Z,56.95
2023-02-23T21:17:47.772Z,47.22
2023-02-23T21:20:21.097Z,53.55
2023-02-23T21:22:53.728Z,65.75
2023-02-23T21:25:27.330Z,61.80
2023-02-23T21:28:02.142Z,50.40
2023-02-23T21:30:35.124Z,52.13
2023-02-23T21:33:07.766Z,57.75
2023-02-23T21:35:40.784Z,65.35
2023-02-23T21:38:13.347Z,63.40
2023-02-23T21:40:46.238Z,46.03
2023-02-23T21:43:18.931Z,51.67
2023-02-23T21:45:52.252Z,45.47
2023-02-23T21:48:25.954Z,51.17
2023-02-23T21:51:02.748Z,41.63
2023-02-23T21:53:37.780Z,47.88
2023-02-23T21:56:15.469Z,48.47
2023-02-23T21:58:49.849Z,50.75
2023-02-23T22:01:24.518Z,57.60
2023-02-23T22:03:57.787Z,51.67
2023-02-23T22:06:34.534Z,63.60
2023-02-23T22:09:11.534Z,55.60
2023-02-23T22:11:45.792Z,42.10
2023-02-23T22:14:18.574Z,56.70
2023-02-23T22:16:51.590Z,51.83
2023-02-23T22:19:24.160Z,41.88
2023-02-23T22:21:57.136Z,41.42
2023-02-23T22:24:30.974Z,33.45
2023-02-23T22:27:04.452Z,36.75
2023-02-23T22:29:37.124Z,42.38
2023-02-23T22:32:11.647Z,57.53
2023-02-23T22:34:44.805Z,61.42
2023-02-23T22:37:21.601Z,64.68
2023-02-23T22:39:54.498Z,48.55
2023-02-23T22:42:30.537Z,50.28
2023-02-23T22:45:03.132Z,40.58
2023-02-23T22:47:36.213Z,32.03
2023-02-23T22:50:12.256Z,37.88
2023-02-23T22:52:46.525Z,39.80
2023-02-23T22:55:19.639Z,35.78
2023-02-23T22:57:52.551Z,43.38
2023-02-23T23:00:25.318Z,36.85
2023-02-23T23:02:58.328Z,44.55
2023-02-23T23:05:31.441Z,54.58
2023-02-23T23:08:04.480Z,57.03
2023-02-23T23:10:38.287Z,61.88
2023-02-23T23:13:12.053Z,61.88
2023-02-23T23:15:44.603Z,49.78
2023-02-23T23:18:21.017Z,54.78
2023-02-23T23:20:55.678Z,36.97
2023-02-23T23:23:28.799Z,55.40
2023-02-23T23:26:01.322Z,64.63
2023-02-23T23:28:40.424Z,76.25
2023-02-23T23:31:13.560Z,70.10
2023-02-23T23:33:49.042Z,54.88
2023-02-23T23:36:23.520Z,48.67
2023-02-23T23:38:56.854Z,48.45
2023-02-23T23:41:30.258Z,51.58
2023-02-23T23:44:06.353Z,57.55
2023-02-23T23:46:39.321Z,42.72
2023-02-23T23:49:16.169Z,46.92
2023-02-23T23:51:50.587Z,149.32
2023-02-23T23:54:26.549Z,104.03
2023-02-23T23:57:01.724Z,98.63
2023-02-23T23:59:35.648Z,90.70
